sensor_id;sensor_type;location;lat;lon;timestamp;temperature;humidity
53208;DHT22;39093;52.788;6.940;2023-02-15T00:02:05;3.00;99.90
53208;DHT22;39093;52.788;6.940;2023-02-15T00:04:32;3.00;99.90
53208;DHT22;39093;52.788;6.940;2023-02-15T00:07:18;3.00;99.90
53208;DHT22;39093;52.788;6.940;2023-02-15T00:09:46;3.00;99.90
53208;DHT22;39093;52.788;6.940;2023-02-15T00:12:13;3.00;99.90
53208;DHT22;39093;52.788;6.940;2023-02-15T00:14:40;3.00;99.90
53208;DHT22;39093;52.788;6.940;2023-02-15T00:17:08;2.90;99.90
53208;DHT22;39093;52.788;6.940;2023-02-15T00:19:35;2.90;99.90
53208;DHT22;39093;52.788;6.940;2023-02-15T00:22:02;2.90;99.90
53208;DHT22;39093;52.788;6.940;2023-02-15T00:24:29;2.90;99.90
53208;DHT22;39093;52.788;6.940;2023-02-15T00:26:56;2.90;99.90
53208;DHT22;39093;52.788;6.940;2023-02-15T00:29:23;2.80;99.90
53208;DHT22;39093;52.788;6.940;2023-02-15T00:31:50;3.10;99.90
53208;DHT22;39093;52.788;6.940;2023-02-15T00:34:23;2.80;99.90
53208;DHT22;39093;52.788;6.940;2023-02-15T00:36:50;2.90;99.90
53208;DHT22;39093;52.788;6.940;2023-02-15T00:39:18;2.90;99.90
53208;DHT22;39093;52.788;6.940;2023-02-15T00:41:46;2.90;99.90
53208;DHT22;39093;52.788;6.940;2023-02-15T00:44:14;2.80;99.90
53208;DHT22;39093;52.788;6.940;2023-02-15T00:46:41;2.80;99.90
53208;DHT22;39093;52.788;6.940;2023-02-15T00:49:09;2.80;99.90
53208;DHT22;39093;52.788;6.940;2023-02-15T00:51:36;2.80;99.90
53208;DHT22;39093;52.788;6.940;2023-02-15T00:54:02;2.70;99.90
53208;DHT22;39093;52.788;6.940;2023-02-15T00:56:29;2.70;99.90
53208;DHT22;39093;52.788;6.940;2023-02-15T00:58:56;2.70;99.90
53208;DHT22;39093;52.788;6.940;2023-02-15T01:01:23;2.70;99.90
53208;DHT22;39093;52.788;6.940;2023-02-15T01:03:50;2.70;99.90
53208;DHT22;39093;52.788;6.940;2023-02-15T01:06:17;2.70;99.90
53208;DHT22;39093;52.788;6.940;2023-02-15T01:08:45;2.70;99.90
53208;DHT22;39093;52.788;6.940;2023-02-15T01:11:18;2.70;99.90
53208;DHT22;39093;52.788;6.940;2023-02-15T01:13:57;2.60;99.90
53208;DHT22;39093;52.788;6.940;2023-02-15T01:16:26;2.60;99.90
53208;DHT22;39093;52.788;6.940;2023-02-15T01:18:53;2.60;99.90
53208;DHT22;39093;52.788;6.940;2023-02-15T01:21:23;2.60;99.90
53208;DHT22;39093;52.788;6.940;2023-02-15T01:23:50;2.60;99.90
53208;DHT22;39093;52.788;6.940;2023-02-15T01:26:17;2.60;99.90
53208;DHT22;39093;52.788;6.940;2023-02-15T01:28:44;2.50;99.90
53208;DHT22;39093;52.788;6.940;2023-02-15T01:31:15;2.50;99.90
53208;DHT22;39093;52.788;6.940;2023-02-15T01:33:44;2.50;99.90
53208;DHT22;39093;52.788;6.940;2023-02-15T01:36:11;2.80;99.90
53208;DHT22;39093;52.788;6.940;2023-02-15T01:38:39;2.50;99.90
53208;DHT22;39093;52.788;6.940;2023-02-15T01:41:09;2.50;99.90
53208;DHT22;39093;52.788;6.940;2023-02-15T01:44:00;2.80;99.90
53208;DHT22;39093;52.788;6.940;2023-02-15T01:46:38;2.50;99.90
53208;DHT22;39093;52.788;6.940;2023-02-15T01:49:18;2.50;99.90
53208;DHT22;39093;52.788;6.940;2023-02-15T01:51:48;2.60;99.90
53208;DHT22;39093;52.788;6.940;2023-02-15T01:54:24;2.60;99.90
53208;DHT22;39093;52.788;6.940;2023-02-15T01:56:54;2.60;99.90
53208;DHT22;39093;52.788;6.940;2023-02-15T01:59:25;2.50;99.90
53208;DHT22;39093;52.788;6.940;2023-02-15T02:01:54;2.50;99.90
53208;DHT22;39093;52.788;6.940;2023-02-15T02:04:45;2.50;99.90
53208;DHT22;39093;52.788;6.940;2023-02-15T02:07:15;2.40;99.90
53208;DHT22;39093;52.788;6.940;2023-02-15T02:09:44;2.50;99.90
53208;DHT22;39093;52.788;6.940;2023-02-15T02:12:12;2.50;99.90
53208;DHT22;39093;52.788;6.940;2023-02-15T02:14:40;2.40;99.90
53208;DHT22;39093;52.788;6.940;2023-02-15T02:22:50;2.40;99.90
53208;DHT22;39093;52.788;6.940;2023-02-15T02:34:16;2.40;99.90
53208;DHT22;39093;52.788;6.940;2023-02-15T02:37:24;2.40;99.90
53208;DHT22;39093;52.788;6.940;2023-02-15T02:40:05;2.40;99.90
53208;DHT22;39093;52.788;6.940;2023-02-15T02:42:59;2.40;99.90
53208;DHT22;39093;52.788;6.940;2023-02-15T02:45:39;2.30;99.90
53208;DHT22;39093;52.788;6.940;2023-02-15T02:48:19;2.40;99.90
53208;DHT22;39093;52.788;6.940;2023-02-15T02:50:47;2.30;99.90
53208;DHT22;39093;52.788;6.940;2023-02-15T02:53:14;2.40;99.90
53208;DHT22;39093;52.788;6.940;2023-02-15T02:55:45;2.30;99.90
53208;DHT22;39093;52.788;6.940;2023-02-15T02:58:23;2.30;99.90
53208;DHT22;39093;52.788;6.940;2023-02-15T03:00:57;2.30;99.90
53208;DHT22;39093;52.788;6.940;2023-02-15T03:03:31;2.30;99.90
53208;DHT22;39093;52.788;6.940;2023-02-15T03:06:06;2.30;99.90
53208;DHT22;39093;52.788;6.940;2023-02-15T03:08:38;2.30;99.90
53208;DHT22;39093;52.788;6.940;2023-02-15T03:11:07;2.30;99.90
53208;DHT22;39093;52.788;6.940;2023-02-15T03:13:34;2.30;99.90
53208;DHT22;39093;52.788;6.940;2023-02-15T03:16:03;2.50;99.90
53208;DHT22;39093;52.788;6.940;2023-02-15T03:19:09;2.30;99.90
53208;DHT22;39093;52.788;6.940;2023-02-15T03:21:51;2.30;99.90
53208;DHT22;39093;52.788;6.940;2023-02-15T03:24:31;2.30;99.90
53208;DHT22;39093;52.788;6.940;2023-02-15T03:26:59;2.30;99.90
53208;DHT22;39093;52.788;6.940;2023-02-15T03:29:27;2.30;99.90
53208;DHT22;39093;52.788;6.940;2023-02-15T03:31:59;2.40;99.90
53208;DHT22;39093;52.788;6.940;2023-02-15T03:34:27;2.40;99.90
53208;DHT22;39093;52.788;6.940;2023-02-15T03:37:15;2.40;99.90
53208;DHT22;39093;52.788;6.940;2023-02-15T03:39:53;2.30;99.90
53208;DHT22;39093;52.788;6.940;2023-02-15T03:42:31;2.30;99.90
53208;DHT22;39093;52.788;6.940;2023-02-15T03:45:06;2.20;99.90
53208;DHT22;39093;52.788;6.940;2023-02-15T03:47:41;2.10;99.90
53208;DHT22;39093;52.788;6.940;2023-02-15T03:50:18;2.10;99.90
53208;DHT22;39093;52.788;6.940;2023-02-15T03:53:09;2.10;99.90
53208;DHT22;39093;52.788;6.940;2023-02-15T03:55:37;2.00;99.90
53208;DHT22;39093;52.788;6.940;2023-02-15T03:58:04;2.00;99.90
53208;DHT22;39093;52.788;6.940;2023-02-15T04:01:04;2.00;99.90
53208;DHT22;39093;52.788;6.940;2023-02-15T04:03:56;2.00;99.90
53208;DHT22;39093;52.788;6.940;2023-02-15T04:06:25;2.00;99.90
53208;DHT22;39093;52.788;6.940;2023-02-15T04:08:52;2.00;99.90
53208;DHT22;39093;52.788;6.940;2023-02-15T04:11:37;2.00;99.90
53208;DHT22;39093;52.788;6.940;2023-02-15T04:14:04;2.00;99.90
53208;DHT22;39093;52.788;6.940;2023-02-15T04:16:51;2.00;99.90
53208;DHT22;39093;52.788;6.940;2023-02-15T04:19:18;2.00;99.90
53208;DHT22;39093;52.788;6.940;2023-02-15T04:22:03;1.90;99.90
53208;DHT22;39093;52.788;6.940;2023-02-15T04:24:49;1.90;99.90
53208;DHT22;39093;52.788;6.940;2023-02-15T04:27:35;1.90;99.90
53208;DHT22;39093;52.788;6.940;2023-02-15T04:30:02;1.90;99.90
53208;DHT22;39093;52.788;6.940;2023-02-15T04:32:29;1.80;99.90
53208;DHT22;39093;52.788;6.940;2023-02-15T04:34:56;1.80;99.90
53208;DHT22;39093;52.788;6.940;2023-02-15T04:37:23;1.80;99.90
53208;DHT22;39093;52.788;6.940;2023-02-15T04:39:50;1.80;99.90
53208;DHT22;39093;52.788;6.940;2023-02-15T04:42:17;1.80;99.90
53208;DHT22;39093;52.788;6.940;2023-02-15T04:44:44;1.80;99.90
53208;DHT22;39093;52.788;6.940;2023-02-15T04:47:11;1.80;99.90
53208;DHT22;39093;52.788;6.940;2023-02-15T04:49:38;1.80;99.90
53208;DHT22;39093;52.788;6.940;2023-02-15T04:52:04;1.80;99.90
53208;DHT22;39093;52.788;6.940;2023-02-15T04:54:31;1.80;99.90
53208;DHT22;39093;52.788;6.940;2023-02-15T04:56:58;2.10;99.90
53208;DHT22;39093;52.788;6.940;2023-02-15T04:59:25;1.80;99.90
53208;DHT22;39093;52.788;6.940;2023-02-15T05:01:52;1.70;99.90
53208;DHT22;39093;52.788;6.940;2023-02-15T05:04:19;1.70;99.90
53208;DHT22;39093;52.788;6.940;2023-02-15T05:06:46;1.70;99.90
53208;DHT22;39093;52.788;6.940;2023-02-15T05:09:13;1.70;99.90
53208;DHT22;39093;52.788;6.940;2023-02-15T05:11:40;1.70;99.90
53208;DHT22;39093;52.788;6.940;2023-02-15T05:14:07;1.70;99.90
53208;DHT22;39093;52.788;6.940;2023-02-15T05:16:34;1.80;99.90
53208;DHT22;39093;52.788;6.940;2023-02-15T05:19:01;1.70;99.90
53208;DHT22;39093;52.788;6.940;2023-02-15T05:21:28;1.70;99.90
53208;DHT22;39093;52.788;6.940;2023-02-15T05:23:55;2.00;99.90
53208;DHT22;39093;52.788;6.940;2023-02-15T05:26:24;1.70;99.90
53208;DHT22;39093;52.788;6.940;2023-02-15T05:29:10;1.60;99.90
53208;DHT22;39093;52.788;6.940;2023-02-15T05:31:37;1.60;99.90
53208;DHT22;39093;52.788;6.940;2023-02-15T05:34:04;1.60;99.90
53208;DHT22;39093;52.788;6.940;2023-02-15T05:36:31;1.60;99.90
53208;DHT22;39093;52.788;6.940;2023-02-15T05:38:58;1.60;99.90
53208;DHT22;39093;52.788;6.940;2023-02-15T05:41:25;1.60;99.90
53208;DHT22;39093;52.788;6.940;2023-02-15T05:43:55;1.70;99.90
53208;DHT22;39093;52.788;6.940;2023-02-15T05:46:22;1.60;99.90
53208;DHT22;39093;52.788;6.940;2023-02-15T05:48:49;1.60;99.90
53208;DHT22;39093;52.788;6.940;2023-02-15T05:51:15;1.50;99.90
53208;DHT22;39093;52.788;6.940;2023-02-15T05:53:43;1.80;99.90
53208;DHT22;39093;52.788;6.940;2023-02-15T05:56:11;1.50;99.90
53208;DHT22;39093;52.788;6.940;2023-02-15T05:58:40;1.60;99.90
53208;DHT22;39093;52.788;6.940;2023-02-15T06:01:15;1.50;99.90
53208;DHT22;39093;52.788;6.940;2023-02-15T06:03:45;1.50;99.90
53208;DHT22;39093;52.788;6.940;2023-02-15T06:06:12;1.40;99.90
53208;DHT22;39093;52.788;6.940;2023-02-15T06:08:39;1.40;99.90
53208;DHT22;39093;52.788;6.940;2023-02-15T06:11:06;1.30;99.90
53208;DHT22;39093;52.788;6.940;2023-02-15T06:13:34;1.40;99.90
53208;DHT22;39093;52.788;6.940;2023-02-15T06:16:05;1.40;99.90
53208;DHT22;39093;52.788;6.940;2023-02-15T06:18:32;1.40;99.90
53208;DHT22;39093;52.788;6.940;2023-02-15T06:20:59;1.40;99.90
53208;DHT22;39093;52.788;6.940;2023-02-15T06:23:26;1.30;99.90
53208;DHT22;39093;52.788;6.940;2023-02-15T06:25:53;1.30;99.90
53208;DHT22;39093;52.788;6.940;2023-02-15T06:28:20;1.30;99.90
53208;DHT22;39093;52.788;6.940;2023-02-15T06:30:46;1.30;99.90
53208;DHT22;39093;52.788;6.940;2023-02-15T06:33:14;1.30;99.90
53208;DHT22;39093;52.788;6.940;2023-02-15T06:35:40;1.30;99.90
53208;DHT22;39093;52.788;6.940;2023-02-15T06:38:07;1.30;99.90
53208;DHT22;39093;52.788;6.940;2023-02-15T06:40:34;1.30;99.90
53208;DHT22;39093;52.788;6.940;2023-02-15T06:43:01;1.30;99.90
53208;DHT22;39093;52.788;6.940;2023-02-15T06:45:28;1.30;99.90
53208;DHT22;39093;52.788;6.940;2023-02-15T06:47:55;1.30;99.90
53208;DHT22;39093;52.788;6.940;2023-02-15T06:50:22;1.30;99.90
53208;DHT22;39093;52.788;6.940;2023-02-15T06:52:49;1.30;99.90
53208;DHT22;39093;52.788;6.940;2023-02-15T06:55:16;1.20;99.90
53208;DHT22;39093;52.788;6.940;2023-02-15T06:57:42;1.30;99.90
53208;DHT22;39093;52.788;6.940;2023-02-15T07:00:10;1.30;99.90
53208;DHT22;39093;52.788;6.940;2023-02-15T07:02:37;1.30;99.90
53208;DHT22;39093;52.788;6.940;2023-02-15T07:05:04;1.30;99.90
53208;DHT22;39093;52.788;6.940;2023-02-15T07:07:32;1.30;99.90
53208;DHT22;39093;52.788;6.940;2023-02-15T07:09:58;1.20;99.90
53208;DHT22;39093;52.788;6.940;2023-02-15T07:12:25;1.30;99.90
53208;DHT22;39093;52.788;6.940;2023-02-15T07:15:13;1.30;99.90
53208;DHT22;39093;52.788;6.940;2023-02-15T07:17:41;1.30;99.90
53208;DHT22;39093;52.788;6.940;2023-02-15T07:20:12;1.30;99.90
53208;DHT22;39093;52.788;6.940;2023-02-15T07:22:39;1.30;99.90
53208;DHT22;39093;52.788;6.940;2023-02-15T07:25:08;1.30;99.90
53208;DHT22;39093;52.788;6.940;2023-02-15T07:27:35;1.30;99.90
53208;DHT22;39093;52.788;6.940;2023-02-15T07:30:04;1.40;99.90
53208;DHT22;39093;52.788;6.940;2023-02-15T07:32:32;1.40;99.90
53208;DHT22;39093;52.788;6.940;2023-02-15T07:34:59;1.40;99.90
53208;DHT22;39093;52.788;6.940;2023-02-15T07:37:27;1.50;99.90
53208;DHT22;39093;52.788;6.940;2023-02-15T07:39:54;1.50;99.90
53208;DHT22;39093;52.788;6.940;2023-02-15T07:42:20;1.50;99.90
53208;DHT22;39093;52.788;6.940;2023-02-15T07:44:48;1.60;99.90
53208;DHT22;39093;52.788;6.940;2023-02-15T07:47:15;1.60;99.90
53208;DHT22;39093;52.788;6.940;2023-02-15T07:49:42;1.60;99.90
53208;DHT22;39093;52.788;6.940;2023-02-15T07:52:09;1.60;99.90
53208;DHT22;39093;52.788;6.940;2023-02-15T07:54:36;1.60;99.90
53208;DHT22;39093;52.788;6.940;2023-02-15T07:57:03;1.70;99.90
53208;DHT22;39093;52.788;6.940;2023-02-15T07:59:30;1.60;99.90
53208;DHT22;39093;52.788;6.940;2023-02-15T08:01:56;1.70;99.90
53208;DHT22;39093;52.788;6.940;2023-02-15T08:04:24;1.80;99.90
53208;DHT22;39093;52.788;6.940;2023-02-15T08:06:54;1.80;99.90
53208;DHT22;39093;52.788;6.940;2023-02-15T08:09:22;1.90;99.90
53208;DHT22;39093;52.788;6.940;2023-02-15T08:11:49;2.00;99.90
53208;DHT22;39093;52.788;6.940;2023-02-15T08:14:18;2.00;99.90
53208;DHT22;39093;52.788;6.940;2023-02-15T08:16:50;2.00;99.90
53208;DHT22;39093;52.788;6.940;2023-02-15T08:19:21;2.10;99.90
53208;DHT22;39093;52.788;6.940;2023-02-15T08:21:57;2.20;99.90
53208;DHT22;39093;52.788;6.940;2023-02-15T08:24:30;2.20;99.90
53208;DHT22;39093;52.788;6.940;2023-02-15T08:26:57;2.20;99.90
53208;DHT22;39093;52.788;6.940;2023-02-15T08:29:27;2.20;99.90
53208;DHT22;39093;52.788;6.940;2023-02-15T08:32:00;2.20;99.90
53208;DHT22;39093;52.788;6.940;2023-02-15T08:34:33;2.30;99.90
53208;DHT22;39093;52.788;6.940;2023-02-15T08:37:00;2.60;99.90
53208;DHT22;39093;52.788;6.940;2023-02-15T08:39:27;2.30;99.90
53208;DHT22;39093;52.788;6.940;2023-02-15T08:41:55;2.40;99.90
53208;DHT22;39093;52.788;6.940;2023-02-15T08:44:22;2.40;99.90
53208;DHT22;39093;52.788;6.940;2023-02-15T08:46:49;2.60;99.90
53208;DHT22;39093;52.788;6.940;2023-02-15T08:49:19;2.50;99.90
53208;DHT22;39093;52.788;6.940;2023-02-15T08:51:47;2.60;99.90
53208;DHT22;39093;52.788;6.940;2023-02-15T08:54:16;2.70;99.90
53208;DHT22;39093;52.788;6.940;2023-02-15T08:56:44;2.80;99.90
53208;DHT22;39093;52.788;6.940;2023-02-15T08:59:20;3.00;99.90
53208;DHT22;39093;52.788;6.940;2023-02-15T09:01:49;2.90;99.90
53208;DHT22;39093;52.788;6.940;2023-02-15T09:04:16;2.90;99.90
53208;DHT22;39093;52.788;6.940;2023-02-15T09:06:46;3.20;99.90
53208;DHT22;39093;52.788;6.940;2023-02-15T09:09:15;3.00;99.90
53208;DHT22;39093;52.788;6.940;2023-02-15T09:11:44;3.00;99.90
53208;DHT22;39093;52.788;6.940;2023-02-15T09:14:13;3.10;99.90
53208;DHT22;39093;52.788;6.940;2023-02-15T09:16:43;3.30;99.90
53208;DHT22;39093;52.788;6.940;2023-02-15T09:19:16;3.50;99.90
53208;DHT22;39093;52.788;6.940;2023-02-15T09:21:44;3.30;99.90
53208;DHT22;39093;52.788;6.940;2023-02-15T09:24:14;3.40;99.90
53208;DHT22;39093;52.788;6.940;2023-02-15T09:26:43;3.40;99.90
53208;DHT22;39093;52.788;6.940;2023-02-15T09:29:11;3.50;99.90
53208;DHT22;39093;52.788;6.940;2023-02-15T09:31:42;3.50;99.90
53208;DHT22;39093;52.788;6.940;2023-02-15T09:34:12;3.80;99.90
53208;DHT22;39093;52.788;6.940;2023-02-15T09:36:40;3.70;99.90
53208;DHT22;39093;52.788;6.940;2023-02-15T09:47:44;3.90;99.90
53208;DHT22;39093;52.788;6.940;2023-02-15T09:50:44;3.90;99.90
53208;DHT22;39093;52.788;6.940;2023-02-15T09:53:34;3.90;99.90
53208;DHT22;39093;52.788;6.940;2023-02-15T09:56:09;4.00;99.90
53208;DHT22;39093;52.788;6.940;2023-02-15T10:07:43;4.30;99.90
53208;DHT22;39093;52.788;6.940;2023-02-15T10:13:47;4.50;99.90
53208;DHT22;39093;52.788;6.940;2023-02-15T10:16:23;4.60;99.90
53208;DHT22;39093;52.788;6.940;2023-02-15T10:19:12;4.70;99.90
53208;DHT22;39093;52.788;6.940;2023-02-15T10:27:19;5.00;99.90
53208;DHT22;39093;52.788;6.940;2023-02-15T10:33:00;5.20;99.90
53208;DHT22;39093;52.788;6.940;2023-02-15T10:38:34;5.40;99.90
53208;DHT22;39093;52.788;6.940;2023-02-15T10:41:13;5.50;99.90
53208;DHT22;39093;52.788;6.940;2023-02-15T10:44:07;5.60;99.90
53208;DHT22;39093;52.788;6.940;2023-02-15T10:46:55;5.70;99.90
53208;DHT22;39093;52.788;6.940;2023-02-15T11:01:02;6.10;99.90
53208;DHT22;39093;52.788;6.940;2023-02-15T11:06:18;6.30;99.90
53208;DHT22;39093;52.788;6.940;2023-02-15T11:08:52;6.40;99.90
53208;DHT22;39093;52.788;6.940;2023-02-15T11:11:31;6.50;99.90
53208;DHT22;39093;52.788;6.940;2023-02-15T11:16:51;6.70;99.90
53208;DHT22;39093;52.788;6.940;2023-02-15T11:19:28;6.70;99.90
53208;DHT22;39093;52.788;6.940;2023-02-15T11:22:04;6.80;99.90
53208;DHT22;39093;52.788;6.940;2023-02-15T11:24:36;7.00;99.90
53208;DHT22;39093;52.788;6.940;2023-02-15T11:29:46;7.00;99.90
53208;DHT22;39093;52.788;6.940;2023-02-15T11:32:25;7.10;99.90
53208;DHT22;39093;52.788;6.940;2023-02-15T11:37:36;7.30;99.90
53208;DHT22;39093;52.788;6.940;2023-02-15T11:43:03;7.50;99.90
53208;DHT22;39093;52.788;6.940;2023-02-15T11:45:33;7.60;99.90
53208;DHT22;39093;52.788;6.940;2023-02-15T11:48:14;7.70;99.90
53208;DHT22;39093;52.788;6.940;2023-02-15T11:50:43;7.80;99.90
53208;DHT22;39093;52.788;6.940;2023-02-15T11:53:14;7.80;99.90
53208;DHT22;39093;52.788;6.940;2023-02-15T11:55:44;8.00;99.90
53208;DHT22;39093;52.788;6.940;2023-02-15T12:01:02;8.20;99.90
53208;DHT22;39093;52.788;6.940;2023-02-15T12:06:33;8.30;99.90
53208;DHT22;39093;52.788;6.940;2023-02-15T12:09:30;8.40;99.90
53208;DHT22;39093;52.788;6.940;2023-02-15T12:14:51;8.60;99.90
53208;DHT22;39093;52.788;6.940;2023-02-15T12:17:22;8.80;99.90
53208;DHT22;39093;52.788;6.940;2023-02-15T12:19:52;8.90;99.90
53208;DHT22;39093;52.788;6.940;2023-02-15T12:22:28;9.10;99.90
53208;DHT22;39093;52.788;6.940;2023-02-15T12:24:59;9.20;99.90
53208;DHT22;39093;52.788;6.940;2023-02-15T12:27:31;9.30;99.90
53208;DHT22;39093;52.788;6.940;2023-02-15T12:32:36;9.50;99.90
53208;DHT22;39093;52.788;6.940;2023-02-15T12:35:16;9.60;99.90
53208;DHT22;39093;52.788;6.940;2023-02-15T12:38:37;9.70;99.90
53208;DHT22;39093;52.788;6.940;2023-02-15T12:41:03;9.70;99.90
53208;DHT22;39093;52.788;6.940;2023-02-15T12:43:37;9.80;99.90
53208;DHT22;39093;52.788;6.940;2023-02-15T12:48:41;9.90;99.90
53208;DHT22;39093;52.788;6.940;2023-02-15T12:51:08;10.00;99.90
53208;DHT22;39093;52.788;6.940;2023-02-15T12:53:37;10.10;99.90
53208;DHT22;39093;52.788;6.940;2023-02-15T12:56:06;10.20;99.90
53208;DHT22;39093;52.788;6.940;2023-02-15T12:58:38;10.30;99.90
53208;DHT22;39093;52.788;6.940;2023-02-15T13:01:19;10.30;99.90
53208;DHT22;39093;52.788;6.940;2023-02-15T13:03:56;10.40;99.90
53208;DHT22;39093;52.788;6.940;2023-02-15T13:06:26;10.40;99.90
53208;DHT22;39093;52.788;6.940;2023-02-15T13:09:20;10.50;99.90
53208;DHT22;39093;52.788;6.940;2023-02-15T13:11:47;10.50;99.90
53208;DHT22;39093;52.788;6.940;2023-02-15T13:14:20;10.60;99.90
53208;DHT22;39093;52.788;6.940;2023-02-15T13:16:50;10.60;99.90
53208;DHT22;39093;52.788;6.940;2023-02-15T13:19:31;10.70;99.90
53208;DHT22;39093;52.788;6.940;2023-02-15T13:24:58;10.80;99.90
53208;DHT22;39093;52.788;6.940;2023-02-15T13:27:40;10.90;99.90
53208;DHT22;39093;52.788;6.940;2023-02-15T13:30:25;10.90;99.90
53208;DHT22;39093;52.788;6.940;2023-02-15T13:32:58;10.90;99.90
53208;DHT22;39093;52.788;6.940;2023-02-15T13:35:33;10.90;99.90
53208;DHT22;39093;52.788;6.940;2023-02-15T13:41:03;10.90;99.90
53208;DHT22;39093;52.788;6.940;2023-02-15T13:47:00;10.90;99.90
53208;DHT22;39093;52.788;6.940;2023-02-15T13:49:54;10.90;99.90
53208;DHT22;39093;52.788;6.940;2023-02-15T13:52:24;10.80;99.90
53208;DHT22;39093;52.788;6.940;2023-02-15T13:57:50;10.90;99.90
53208;DHT22;39093;52.788;6.940;2023-02-15T14:19:54;11.20;99.90
53208;DHT22;39093;52.788;6.940;2023-02-15T14:22:49;11.20;99.90
53208;DHT22;39093;52.788;6.940;2023-02-15T14:25:21;11.20;99.90
53208;DHT22;39093;52.788;6.940;2023-02-15T14:28:21;11.20;99.90
53208;DHT22;39093;52.788;6.940;2023-02-15T14:30:53;11.10;99.90
53208;DHT22;39093;52.788;6.940;2023-02-15T14:33:41;11.20;99.90
53208;DHT22;39093;52.788;6.940;2023-02-15T14:36:15;11.20;99.90
53208;DHT22;39093;52.788;6.940;2023-02-15T14:41:50;11.10;99.90
53208;DHT22;39093;52.788;6.940;2023-02-15T14:44:38;11.00;99.90
53208;DHT22;39093;52.788;6.940;2023-02-15T14:47:43;10.90;99.90
53208;DHT22;39093;52.788;6.940;2023-02-15T14:55:48;10.70;99.90
53208;DHT22;39093;52.788;6.940;2023-02-15T14:58:31;10.70;99.90
53208;DHT22;39093;52.788;6.940;2023-02-15T15:01:05;10.70;99.90
53208;DHT22;39093;52.788;6.940;2023-02-15T15:03:33;10.60;99.90
53208;DHT22;39093;52.788;6.940;2023-02-15T15:06:03;10.60;99.90
53208;DHT22;39093;52.788;6.940;2023-02-15T15:08:38;10.60;99.90
53208;DHT22;39093;52.788;6.940;2023-02-15T15:11:41;10.50;99.90
53208;DHT22;39093;52.788;6.940;2023-02-15T15:14:36;10.50;99.90
53208;DHT22;39093;52.788;6.940;2023-02-15T15:17:00;10.50;99.90
53208;DHT22;39093;52.788;6.940;2023-02-15T15:22:26;10.40;99.90
53208;DHT22;39093;52.788;6.940;2023-02-15T15:24:55;10.40;99.90
53208;DHT22;39093;52.788;6.940;2023-02-15T15:41:18;10.20;99.90
53208;DHT22;39093;52.788;6.940;2023-02-15T15:49:21;10.00;99.90
53208;DHT22;39093;52.788;6.940;2023-02-15T15:51:50;9.90;99.90
53208;DHT22;39093;52.788;6.940;2023-02-15T15:54:23;9.90;99.90
53208;DHT22;39093;52.788;6.940;2023-02-15T15:56:53;9.90;99.90
53208;DHT22;39093;52.788;6.940;2023-02-15T15:59:25;9.80;99.90
53208;DHT22;39093;52.788;6.940;2023-02-15T16:01:53;9.80;99.90
53208;DHT22;39093;52.788;6.940;2023-02-15T16:04:29;9.80;99.90
53208;DHT22;39093;52.788;6.940;2023-02-15T16:06:57;9.70;99.90
53208;DHT22;39093;52.788;6.940;2023-02-15T16:09:26;9.70;99.90
53208;DHT22;39093;52.788;6.940;2023-02-15T16:11:58;9.60;99.90
53208;DHT22;39093;52.788;6.940;2023-02-15T16:14:39;9.60;99.90
53208;DHT22;39093;52.788;6.940;2023-02-15T16:17:28;9.60;99.90
53208;DHT22;39093;52.788;6.940;2023-02-15T16:20:27;9.50;99.90
53208;DHT22;39093;52.788;6.940;2023-02-15T16:28:13;9.30;99.90
53208;DHT22;39093;52.788;6.940;2023-02-15T16:30:40;9.30;99.90
53208;DHT22;39093;52.788;6.940;2023-02-15T16:33:14;9.20;99.90
53208;DHT22;39093;52.788;6.940;2023-02-15T16:35:56;9.20;99.90
53208;DHT22;39093;52.788;6.940;2023-02-15T16:41:16;9.00;99.90
53208;DHT22;39093;52.788;6.940;2023-02-15T16:43:46;9.00;99.90
53208;DHT22;39093;52.788;6.940;2023-02-15T16:46:30;9.00;99.90
53208;DHT22;39093;52.788;6.940;2023-02-15T16:49:00;8.90;99.90
53208;DHT22;39093;52.788;6.940;2023-02-15T16:51:30;8.90;99.90
53208;DHT22;39093;52.788;6.940;2023-02-15T16:54:05;8.80;99.90
53208;DHT22;39093;52.788;6.940;2023-02-15T16:56:33;8.80;99.90
53208;DHT22;39093;52.788;6.940;2023-02-15T16:59:01;8.90;99.90
53208;DHT22;39093;52.788;6.940;2023-02-15T17:01:30;8.80;99.90
53208;DHT22;39093;52.788;6.940;2023-02-15T17:07:05;8.70;99.90
53208;DHT22;39093;52.788;6.940;2023-02-15T17:09:33;8.80;99.90
53208;DHT22;39093;52.788;6.940;2023-02-15T17:12:00;8.80;99.90
53208;DHT22;39093;52.788;6.940;2023-02-15T17:14:30;8.80;99.90
53208;DHT22;39093;52.788;6.940;2023-02-15T17:17:05;8.80;99.90
53208;DHT22;39093;52.788;6.940;2023-02-15T17:19:48;8.80;99.90
53208;DHT22;39093;52.788;6.940;2023-02-15T17:22:20;8.60;99.90
53208;DHT22;39093;52.788;6.940;2023-02-15T17:24:49;8.60;99.90
53208;DHT22;39093;52.788;6.940;2023-02-15T17:27:25;8.60;99.90
53208;DHT22;39093;52.788;6.940;2023-02-15T17:29:57;8.50;99.90
53208;DHT22;39093;52.788;6.940;2023-02-15T17:32:26;8.50;99.90
53208;DHT22;39093;52.788;6.940;2023-02-15T17:35:05;8.50;99.90
53208;DHT22;39093;52.788;6.940;2023-02-15T17:40:21;8.40;99.90
53208;DHT22;39093;52.788;6.940;2023-02-15T17:42:49;8.40;99.90
53208;DHT22;39093;52.788;6.940;2023-02-15T17:45:17;8.40;99.90
53208;DHT22;39093;52.788;6.940;2023-02-15T17:47:46;8.40;99.90
53208;DHT22;39093;52.788;6.940;2023-02-15T17:50:25;8.40;99.90
53208;DHT22;39093;52.788;6.940;2023-02-15T17:52:53;8.50;99.90
53208;DHT22;39093;52.788;6.940;2023-02-15T17:55:23;8.40;99.90
53208;DHT22;39093;52.788;6.940;2023-02-15T17:58:07;8.40;99.90
53208;DHT22;39093;52.788;6.940;2023-02-15T18:00:38;8.50;99.90
53208;DHT22;39093;52.788;6.940;2023-02-15T18:03:38;8.40;99.90
53208;DHT22;39093;52.788;6.940;2023-02-15T18:06:24;8.40;99.90
53208;DHT22;39093;52.788;6.940;2023-02-15T18:09:13;8.40;99.90
53208;DHT22;39093;52.788;6.940;2023-02-15T18:12:00;8.30;99.90
53208;DHT22;39093;52.788;6.940;2023-02-15T18:14:27;8.30;99.90
53208;DHT22;39093;52.788;6.940;2023-02-15T18:16:55;8.20;99.90
53208;DHT22;39093;52.788;6.940;2023-02-15T18:19:24;8.20;99.90
53208;DHT22;39093;52.788;6.940;2023-02-15T18:21:52;8.20;99.90
53208;DHT22;39093;52.788;6.940;2023-02-15T18:24:23;8.30;99.90
53208;DHT22;39093;52.788;6.940;2023-02-15T18:26:51;8.10;99.90
53208;DHT22;39093;52.788;6.940;2023-02-15T18:29:19;8.00;99.90
53208;DHT22;39093;52.788;6.940;2023-02-15T18:31:50;8.00;99.90
53208;DHT22;39093;52.788;6.940;2023-02-15T18:34:26;8.00;99.90
53208;DHT22;39093;52.788;6.940;2023-02-15T18:36:54;8.00;99.90
53208;DHT22;39093;52.788;6.940;2023-02-15T18:39:46;7.90;99.90
53208;DHT22;39093;52.788;6.940;2023-02-15T18:44:57;7.90;99.90
53208;DHT22;39093;52.788;6.940;2023-02-15T18:47:25;7.90;99.90
53208;DHT22;39093;52.788;6.940;2023-02-15T18:49:52;8.00;99.90
53208;DHT22;39093;52.788;6.940;2023-02-15T18:52:24;7.90;99.90
53208;DHT22;39093;52.788;6.940;2023-02-15T18:54:57;8.00;99.90
53208;DHT22;39093;52.788;6.940;2023-02-15T18:57:26;8.00;99.90
53208;DHT22;39093;52.788;6.940;2023-02-15T18:59:54;8.00;99.90
53208;DHT22;39093;52.788;6.940;2023-02-15T19:02:23;8.00;99.90
53208;DHT22;39093;52.788;6.940;2023-02-15T19:04:50;8.00;99.90